N7542S SAWH-SCGZ
Flight info
| Callsign | N7542S |
|---|---|
| Flight time | 0h 8m |
| Altitude | 3000 |
| Route | USU DCT PWL |
| Aircraft | AEST/L-SDFGRY/S |
Departure
| Time | 2026-04-26 18:45 |
|---|---|
| Airport | Ushuaia - Malvinas Argentinas International Airport (SAWH) |
Arrival
| Time | 2026-04-26 18:53 |
|---|---|
| Airport | Guardia Marina Zañartu Airport (SCGZ) |
| Time | Latitude | Longitude | Altitude | Speed | Heading |
|---|---|---|---|---|---|
| 2026-04-26 18:45 | -54.89134 | -68.24842 | 2008 ft | 180 kts | 95° |
| 2026-04-26 18:45 | -54.89354 | -68.22684 | 2099 ft | 184 kts | 99° |
| 2026-04-26 18:46 | -54.89645 | -68.20493 | 2222 ft | 185 kts | 100° |
| 2026-04-26 18:46 | -54.89868 | -68.18284 | 2369 ft | 186 kts | 93° |
| 2026-04-26 18:46 | -54.89946 | -68.16027 | 2499 ft | 186 kts | 90° |
| 2026-04-26 18:46 | -54.89978 | -68.13754 | 2561 ft | 189 kts | 87° |
| 2026-04-26 18:47 | -54.89961 | -68.11439 | 2599 ft | 192 kts | 86° |
| 2026-04-26 18:47 | -54.89925 | -68.09122 | 2572 ft | 197 kts | 86° |
| 2026-04-26 18:47 | -54.89936 | -68.06711 | 2478 ft | 204 kts | 89° |
| 2026-04-26 18:47 | -54.89997 | -68.04252 | 2484 ft | 202 kts | 92° |
| 2026-04-26 18:48 | -54.90121 | -68.01820 | 2498 ft | 203 kts | 92° |
| 2026-04-26 18:48 | -54.90254 | -67.99366 | 2469 ft | 205 kts | 93° |
| 2026-04-26 18:48 | -54.90394 | -67.96885 | 2425 ft | 207 kts | 94° |
| 2026-04-26 18:48 | -54.90554 | -67.94412 | 2421 ft | 206 kts | 95° |
| 2026-04-26 18:49 | -54.90761 | -67.91938 | 2359 ft | 208 kts | 98° |
| 2026-04-26 18:49 | -54.91065 | -67.89488 | 2348 ft | 208 kts | 101° |
| 2026-04-26 18:49 | -54.91415 | -67.87048 | 2229 ft | 208 kts | 102° |
| 2026-04-26 18:49 | -54.91765 | -67.84616 | 2095 ft | 206 kts | 102° |
| 2026-04-26 18:50 | -54.92110 | -67.82268 | 1979 ft | 196 kts | 103° |
| 2026-04-26 18:50 | -54.92483 | -67.80060 | 1903 ft | 184 kts | 105° |
| 2026-04-26 18:50 | -54.92854 | -67.78020 | 1914 ft | 168 kts | 103° |
| 2026-04-26 18:50 | -54.93036 | -67.76058 | 1704 ft | 159 kts | 92° |
| 2026-04-26 18:51 | -54.93093 | -67.74306 | 1508 ft | 129 kts | 86° |
| 2026-04-26 18:51 | -54.93070 | -67.72874 | 1344 ft | 113 kts | 84° |
| 2026-04-26 18:51 | -54.93044 | -67.71577 | 1172 ft | 99 kts | 85° |
| 2026-04-26 18:51 | -54.93036 | -67.70370 | 1022 ft | 100 kts | 86° |
| 2026-04-26 18:52 | -54.93059 | -67.69139 | 830 ft | 103 kts | 90° |
| 2026-04-26 18:52 | -54.93053 | -67.67916 | 636 ft | 100 kts | 85° |
| 2026-04-26 18:52 | -54.93067 | -67.66726 | 473 ft | 97 kts | 90° |
| 2026-04-26 18:52 | -54.93079 | -67.65561 | 327 ft | 94 kts | 87° |
| 2026-04-26 18:53 | -54.93091 | -67.64451 | 244 ft | 89 kts | 87° |
| 2026-04-26 18:53 | -54.93097 | -67.63384 | 171 ft | 86 kts | 87° |
| 2026-04-26 18:53 | -54.93099 | -67.62527 | 159 ft | 55 kts | 90° |
| 2026-04-26 18:53 | -54.93106 | -67.62122 | 160 ft | 20 kts | 91° |
| 2026-04-26 18:54 | -54.93109 | -67.61911 | 164 ft | 15 kts | 92° |
| 2026-04-26 18:54 | -54.93110 | -67.61738 | 164 ft | 13 kts | 91° |
| 2026-04-26 18:54 | -54.93127 | -67.61648 | 165 ft | 8 kts | 172° |
| 2026-04-26 18:54 | -54.93183 | -67.61652 | 170 ft | 10 kts | 183° |
| 2026-04-26 18:55 | -54.93220 | -67.61719 | 171 ft | 6 kts | 303° |
| 2026-04-26 18:55 | -54.93216 | -67.61728 | 171 ft | 0 kts | 320° |